sensor_id;sensor_type;location;lat;lon;timestamp;P1;P2;P0
38288;PMS5003;24092;53.370;-6.588;2023-04-03T00:00:31;11;11;
38288;PMS5003;24092;53.370;-6.588;2023-04-03T00:02:58;13;11;
38288;PMS5003;24092;53.370;-6.588;2023-04-03T00:05:26;16;16;
38288;PMS5003;24092;53.370;-6.588;2023-04-03T00:07:52;21;20;
38288;PMS5003;24092;53.370;-6.588;2023-04-03T00:10:20;16;16;
38288;PMS5003;24092;53.370;-6.588;2023-04-03T00:12:48;16;12;
38288;PMS5003;24092;53.370;-6.588;2023-04-03T00:15:15;16;13;
38288;PMS5003;24092;53.370;-6.588;2023-04-03T00:17:42;13;11;
38288;PMS5003;24092;53.370;-6.588;2023-04-03T00:20:09;15;13;
38288;PMS5003;24092;53.370;-6.588;2023-04-03T00:22:37;12;10;
38288;PMS5003;24092;53.370;-6.588;2023-04-03T00:25:04;11;10;
38288;PMS5003;24092;53.370;-6.588;2023-04-03T00:27:32;17;16;
38288;PMS5003;24092;53.370;-6.588;2023-04-03T00:29:59;19;18;
38288;PMS5003;24092;53.370;-6.588;2023-04-03T00:32:26;24;22;
38288;PMS5003;24092;53.370;-6.588;2023-04-03T00:34:54;18;17;
38288;PMS5003;24092;53.370;-6.588;2023-04-03T00:37:21;16;15;
38288;PMS5003;24092;53.370;-6.588;2023-04-03T00:39:48;12;10;
38288;PMS5003;24092;53.370;-6.588;2023-04-03T00:42:15;13;11;
38288;PMS5003;24092;53.370;-6.588;2023-04-03T00:45:25;11;10;
38288;PMS5003;24092;53.370;-6.588;2023-04-03T00:47:55;12;10;
38288;PMS5003;24092;53.370;-6.588;2023-04-03T00:50:23;9;8;
38288;PMS5003;24092;53.370;-6.588;2023-04-03T00:52:50;8;7;
38288;PMS5003;24092;53.370;-6.588;2023-04-03T00:55:18;10;9;
38288;PMS5003;24092;53.370;-6.588;2023-04-03T00:57:47;13;12;
38288;PMS5003;24092;53.370;-6.588;2023-04-03T01:00:16;11;10;
38288;PMS5003;24092;53.370;-6.588;2023-04-03T01:02:45;12;12;
38288;PMS5003;24092;53.370;-6.588;2023-04-03T01:05:12;9;9;
38288;PMS5003;24092;53.370;-6.588;2023-04-03T01:07:42;7;7;
38288;PMS5003;24092;53.370;-6.588;2023-04-03T01:10:10;8;8;
38288;PMS5003;24092;53.370;-6.588;2023-04-03T01:12:41;5;5;
38288;PMS5003;24092;53.370;-6.588;2023-04-03T01:15:10;5;4;
38288;PMS5003;24092;53.370;-6.588;2023-04-03T01:17:39;6;5;
38288;PMS5003;24092;53.370;-6.588;2023-04-03T01:20:23;4;4;
38288;PMS5003;24092;53.370;-6.588;2023-04-03T01:23:13;5;4;
38288;PMS5003;24092;53.370;-6.588;2023-04-03T01:25:52;8;5;
38288;PMS5003;24092;53.370;-6.588;2023-04-03T01:28:22;9;8;
38288;PMS5003;24092;53.370;-6.588;2023-04-03T01:30:53;4;4;
38288;PMS5003;24092;53.370;-6.588;2023-04-03T01:33:26;5;4;
38288;PMS5003;24092;53.370;-6.588;2023-04-03T01:35:53;5;5;
38288;PMS5003;24092;53.370;-6.588;2023-04-03T01:38:20;4;4;
38288;PMS5003;24092;53.370;-6.588;2023-04-03T01:40:48;4;3;
38288;PMS5003;24092;53.370;-6.588;2023-04-03T01:43:15;4;4;
38288;PMS5003;24092;53.370;-6.588;2023-04-03T01:45:42;3;3;
38288;PMS5003;24092;53.370;-6.588;2023-04-03T01:48:09;7;5;
38288;PMS5003;24092;53.370;-6.588;2023-04-03T01:50:36;4;4;
38288;PMS5003;24092;53.370;-6.588;2023-04-03T01:53:03;4;4;
38288;PMS5003;24092;53.370;-6.588;2023-04-03T01:55:30;3;3;
38288;PMS5003;24092;53.370;-6.588;2023-04-03T01:57:57;4;3;
38288;PMS5003;24092;53.370;-6.588;2023-04-03T02:00:24;2;2;
38288;PMS5003;24092;53.370;-6.588;2023-04-03T02:02:51;5;5;
38288;PMS5003;24092;53.370;-6.588;2023-04-03T02:05:18;3;3;
38288;PMS5003;24092;53.370;-6.588;2023-04-03T02:07:46;5;5;
38288;PMS5003;24092;53.370;-6.588;2023-04-03T02:10:13;4;3;
38288;PMS5003;24092;53.370;-6.588;2023-04-03T02:12:40;4;4;
38288;PMS5003;24092;53.370;-6.588;2023-04-03T02:15:07;5;4;
38288;PMS5003;24092;53.370;-6.588;2023-04-03T02:17:35;5;3;
38288;PMS5003;24092;53.370;-6.588;2023-04-03T02:20:02;4;4;
38288;PMS5003;24092;53.370;-6.588;2023-04-03T02:22:31;4;3;
38288;PMS5003;24092;53.370;-6.588;2023-04-03T02:24:58;4;4;
38288;PMS5003;24092;53.370;-6.588;2023-04-03T02:27:26;4;3;
38288;PMS5003;24092;53.370;-6.588;2023-04-03T02:29:53;3;3;
38288;PMS5003;24092;53.370;-6.588;2023-04-03T02:32:21;3;3;
38288;PMS5003;24092;53.370;-6.588;2023-04-03T02:34:48;3;3;
38288;PMS5003;24092;53.370;-6.588;2023-04-03T02:37:15;3;3;
38288;PMS5003;24092;53.370;-6.588;2023-04-03T02:39:42;2;2;
38288;PMS5003;24092;53.370;-6.588;2023-04-03T02:42:09;4;4;
38288;PMS5003;24092;53.370;-6.588;2023-04-03T02:44:36;3;2;
38288;PMS5003;24092;53.370;-6.588;2023-04-03T02:47:03;7;7;
38288;PMS5003;24092;53.370;-6.588;2023-04-03T02:49:30;3;3;
38288;PMS5003;24092;53.370;-6.588;2023-04-03T02:51:58;5;4;
38288;PMS5003;24092;53.370;-6.588;2023-04-03T02:54:25;7;5;
38288;PMS5003;24092;53.370;-6.588;2023-04-03T02:56:52;4;3;
38288;PMS5003;24092;53.370;-6.588;2023-04-03T02:59:19;3;3;
38288;PMS5003;24092;53.370;-6.588;2023-04-03T03:01:46;1;1;
38288;PMS5003;24092;53.370;-6.588;2023-04-03T03:04:13;1;1;
38288;PMS5003;24092;53.370;-6.588;2023-04-03T03:06:41;2;1;
38288;PMS5003;24092;53.370;-6.588;2023-04-03T03:09:08;1;1;
38288;PMS5003;24092;53.370;-6.588;2023-04-03T03:11:35;1;1;
38288;PMS5003;24092;53.370;-6.588;2023-04-03T03:14:02;2;1;
38288;PMS5003;24092;53.370;-6.588;2023-04-03T03:16:29;2;2;
38288;PMS5003;24092;53.370;-6.588;2023-04-03T03:18:56;2;2;
38288;PMS5003;24092;53.370;-6.588;2023-04-03T03:21:23;1;1;
38288;PMS5003;24092;53.370;-6.588;2023-04-03T03:23:51;2;2;
38288;PMS5003;24092;53.370;-6.588;2023-04-03T03:26:18;3;3;
38288;PMS5003;24092;53.370;-6.588;2023-04-03T03:28:45;2;2;
38288;PMS5003;24092;53.370;-6.588;2023-04-03T03:31:12;2;2;
38288;PMS5003;24092;53.370;-6.588;2023-04-03T03:33:40;3;2;
38288;PMS5003;24092;53.370;-6.588;2023-04-03T03:36:07;3;3;
38288;PMS5003;24092;53.370;-6.588;2023-04-03T03:38:34;4;3;
38288;PMS5003;24092;53.370;-6.588;2023-04-03T03:41:01;2;2;
38288;PMS5003;24092;53.370;-6.588;2023-04-03T03:43:28;3;3;
38288;PMS5003;24092;53.370;-6.588;2023-04-03T03:45:55;3;1;
38288;PMS5003;24092;53.370;-6.588;2023-04-03T03:48:22;4;4;
38288;PMS5003;24092;53.370;-6.588;2023-04-03T03:50:49;4;4;
38288;PMS5003;24092;53.370;-6.588;2023-04-03T03:53:17;3;3;
38288;PMS5003;24092;53.370;-6.588;2023-04-03T03:55:44;6;5;
38288;PMS5003;24092;53.370;-6.588;2023-04-03T03:58:11;3;3;
38288;PMS5003;24092;53.370;-6.588;2023-04-03T04:00:38;3;3;
38288;PMS5003;24092;53.370;-6.588;2023-04-03T04:03:05;2;2;
38288;PMS5003;24092;53.370;-6.588;2023-04-03T04:05:33;4;4;
38288;PMS5003;24092;53.370;-6.588;2023-04-03T04:08:00;4;3;
38288;PMS5003;24092;53.370;-6.588;2023-04-03T04:10:27;4;4;
38288;PMS5003;24092;53.370;-6.588;2023-04-03T04:12:54;4;3;
38288;PMS5003;24092;53.370;-6.588;2023-04-03T04:15:21;3;3;
38288;PMS5003;24092;53.370;-6.588;2023-04-03T04:17:48;4;4;
38288;PMS5003;24092;53.370;-6.588;2023-04-03T04:20:15;5;3;
38288;PMS5003;24092;53.370;-6.588;2023-04-03T04:22:42;3;3;
38288;PMS5003;24092;53.370;-6.588;2023-04-03T04:25:10;5;5;
38288;PMS5003;24092;53.370;-6.588;2023-04-03T04:27:37;5;5;
38288;PMS5003;24092;53.370;-6.588;2023-04-03T04:30:05;6;4;
38288;PMS5003;24092;53.370;-6.588;2023-04-03T04:32:33;4;3;
38288;PMS5003;24092;53.370;-6.588;2023-04-03T04:35:00;5;5;
38288;PMS5003;24092;53.370;-6.588;2023-04-03T04:37:28;5;4;
38288;PMS5003;24092;53.370;-6.588;2023-04-03T04:39:55;6;4;
38288;PMS5003;24092;53.370;-6.588;2023-04-03T04:42:22;5;4;
38288;PMS5003;24092;53.370;-6.588;2023-04-03T04:44:49;5;4;
38288;PMS5003;24092;53.370;-6.588;2023-04-03T04:47:16;5;5;
38288;PMS5003;24092;53.370;-6.588;2023-04-03T04:49:44;5;5;
38288;PMS5003;24092;53.370;-6.588;2023-04-03T04:52:11;6;5;
38288;PMS5003;24092;53.370;-6.588;2023-04-03T04:54:38;8;6;
38288;PMS5003;24092;53.370;-6.588;2023-04-03T04:57:05;6;6;
38288;PMS5003;24092;53.370;-6.588;2023-04-03T04:59:32;7;5;
38288;PMS5003;24092;53.370;-6.588;2023-04-03T05:01:59;10;10;
38288;PMS5003;24092;53.370;-6.588;2023-04-03T05:04:26;6;6;
38288;PMS5003;24092;53.370;-6.588;2023-04-03T05:06:53;8;8;
38288;PMS5003;24092;53.370;-6.588;2023-04-03T05:09:21;6;6;
38288;PMS5003;24092;53.370;-6.588;2023-04-03T05:11:48;6;6;
38288;PMS5003;24092;53.370;-6.588;2023-04-03T05:14:15;6;6;
38288;PMS5003;24092;53.370;-6.588;2023-04-03T05:16:42;10;8;
38288;PMS5003;24092;53.370;-6.588;2023-04-03T05:19:10;6;6;
38288;PMS5003;24092;53.370;-6.588;2023-04-03T05:21:37;8;6;
38288;PMS5003;24092;53.370;-6.588;2023-04-03T05:24:04;8;6;
38288;PMS5003;24092;53.370;-6.588;2023-04-03T05:26:32;10;9;
38288;PMS5003;24092;53.370;-6.588;2023-04-03T05:29:00;6;6;
38288;PMS5003;24092;53.370;-6.588;2023-04-03T05:31:27;12;11;
38288;PMS5003;24092;53.370;-6.588;2023-04-03T05:33:54;9;9;
38288;PMS5003;24092;53.370;-6.588;2023-04-03T05:36:21;9;8;
38288;PMS5003;24092;53.370;-6.588;2023-04-03T05:38:48;8;8;
38288;PMS5003;24092;53.370;-6.588;2023-04-03T05:41:15;8;6;
38288;PMS5003;24092;53.370;-6.588;2023-04-03T05:43:42;10;8;
38288;PMS5003;24092;53.370;-6.588;2023-04-03T05:46:10;5;5;
38288;PMS5003;24092;53.370;-6.588;2023-04-03T05:48:38;11;8;
38288;PMS5003;24092;53.370;-6.588;2023-04-03T05:51:06;8;8;
38288;PMS5003;24092;53.370;-6.588;2023-04-03T05:53:39;9;6;
38288;PMS5003;24092;53.370;-6.588;2023-04-03T05:56:07;9;6;
38288;PMS5003;24092;53.370;-6.588;2023-04-03T05:58:34;8;8;
38288;PMS5003;24092;53.370;-6.588;2023-04-03T06:01:01;8;8;
38288;PMS5003;24092;53.370;-6.588;2023-04-03T06:03:28;8;8;
38288;PMS5003;24092;53.370;-6.588;2023-04-03T06:05:56;6;5;
38288;PMS5003;24092;53.370;-6.588;2023-04-03T06:08:23;8;8;
38288;PMS5003;24092;53.370;-6.588;2023-04-03T06:10:50;6;5;
38288;PMS5003;24092;53.370;-6.588;2023-04-03T06:13:17;8;6;
38288;PMS5003;24092;53.370;-6.588;2023-04-03T06:15:44;9;8;
38288;PMS5003;24092;53.370;-6.588;2023-04-03T06:18:11;8;6;
38288;PMS5003;24092;53.370;-6.588;2023-04-03T06:20:38;9;6;
38288;PMS5003;24092;53.370;-6.588;2023-04-03T06:23:05;8;6;
38288;PMS5003;24092;53.370;-6.588;2023-04-03T06:25:32;6;6;
38288;PMS5003;24092;53.370;-6.588;2023-04-03T06:28:00;6;6;
38288;PMS5003;24092;53.370;-6.588;2023-04-03T06:30:26;6;6;
38288;PMS5003;24092;53.370;-6.588;2023-04-03T06:32:54;6;6;
38288;PMS5003;24092;53.370;-6.588;2023-04-03T06:35:21;9;6;
38288;PMS5003;24092;53.370;-6.588;2023-04-03T06:37:48;9;6;
38288;PMS5003;24092;53.370;-6.588;2023-04-03T06:40:15;7;7;
38288;PMS5003;24092;53.370;-6.588;2023-04-03T06:42:47;7;7;
38288;PMS5003;24092;53.370;-6.588;2023-04-03T06:45:14;9;9;
38288;PMS5003;24092;53.370;-6.588;2023-04-03T06:47:41;10;9;
38288;PMS5003;24092;53.370;-6.588;2023-04-03T06:50:09;16;14;
38288;PMS5003;24092;53.370;-6.588;2023-04-03T06:52:37;12;10;
38288;PMS5003;24092;53.370;-6.588;2023-04-03T06:55:05;10;10;
38288;PMS5003;24092;53.370;-6.588;2023-04-03T06:57:33;23;23;
38288;PMS5003;24092;53.370;-6.588;2023-04-03T07:00:00;11;10;
38288;PMS5003;24092;53.370;-6.588;2023-04-03T07:02:27;8;7;
38288;PMS5003;24092;53.370;-6.588;2023-04-03T07:04:54;11;8;
38288;PMS5003;24092;53.370;-6.588;2023-04-03T07:07:21;8;8;
38288;PMS5003;24092;53.370;-6.588;2023-04-03T07:09:49;10;10;
38288;PMS5003;24092;53.370;-6.588;2023-04-03T07:12:15;11;11;
38288;PMS5003;24092;53.370;-6.588;2023-04-03T07:14:43;13;12;
38288;PMS5003;24092;53.370;-6.588;2023-04-03T07:17:09;9;8;
38288;PMS5003;24092;53.370;-6.588;2023-04-03T07:19:37;10;9;
38288;PMS5003;24092;53.370;-6.588;2023-04-03T07:22:04;17;14;
38288;PMS5003;24092;53.370;-6.588;2023-04-03T07:24:31;14;14;
38288;PMS5003;24092;53.370;-6.588;2023-04-03T07:26:58;14;11;
38288;PMS5003;24092;53.370;-6.588;2023-04-03T07:29:25;11;10;
38288;PMS5003;24092;53.370;-6.588;2023-04-03T07:31:52;9;9;
38288;PMS5003;24092;53.370;-6.588;2023-04-03T07:34:19;10;10;
38288;PMS5003;24092;53.370;-6.588;2023-04-03T07:36:47;20;19;
38288;PMS5003;24092;53.370;-6.588;2023-04-03T07:39:14;8;7;
38288;PMS5003;24092;53.370;-6.588;2023-04-03T07:41:40;7;7;
38288;PMS5003;24092;53.370;-6.588;2023-04-03T07:44:07;6;5;
38288;PMS5003;24092;53.370;-6.588;2023-04-03T07:46:34;6;6;
38288;PMS5003;24092;53.370;-6.588;2023-04-03T07:49:01;7;6;
38288;PMS5003;24092;53.370;-6.588;2023-04-03T07:51:28;6;6;
38288;PMS5003;24092;53.370;-6.588;2023-04-03T07:53:55;10;10;
38288;PMS5003;24092;53.370;-6.588;2023-04-03T07:56:22;5;5;
38288;PMS5003;24092;53.370;-6.588;2023-04-03T07:58:49;7;6;
38288;PMS5003;24092;53.370;-6.588;2023-04-03T08:01:16;9;7;
38288;PMS5003;24092;53.370;-6.588;2023-04-03T08:03:43;8;7;
38288;PMS5003;24092;53.370;-6.588;2023-04-03T08:06:10;9;7;
38288;PMS5003;24092;53.370;-6.588;2023-04-03T08:08:37;8;7;
38288;PMS5003;24092;53.370;-6.588;2023-04-03T08:11:04;6;6;
38288;PMS5003;24092;53.370;-6.588;2023-04-03T08:13:31;8;8;
38288;PMS5003;24092;53.370;-6.588;2023-04-03T08:16:06;7;5;
38288;PMS5003;24092;53.370;-6.588;2023-04-03T08:18:35;6;5;
38288;PMS5003;24092;53.370;-6.588;2023-04-03T08:21:05;6;6;
38288;PMS5003;24092;53.370;-6.588;2023-04-03T08:23:33;8;7;
38288;PMS5003;24092;53.370;-6.588;2023-04-03T08:26:05;6;6;
38288;PMS5003;24092;53.370;-6.588;2023-04-03T08:28:33;9;8;
38288;PMS5003;24092;53.370;-6.588;2023-04-03T08:31:02;15;13;
38288;PMS5003;24092;53.370;-6.588;2023-04-03T08:33:30;9;7;
38288;PMS5003;24092;53.370;-6.588;2023-04-03T08:35:58;9;7;
38288;PMS5003;24092;53.370;-6.588;2023-04-03T08:38:25;7;6;
38288;PMS5003;24092;53.370;-6.588;2023-04-03T08:40:59;5;5;
38288;PMS5003;24092;53.370;-6.588;2023-04-03T08:43:30;9;7;
38288;PMS5003;24092;53.370;-6.588;2023-04-03T08:46:08;10;9;
38288;PMS5003;24092;53.370;-6.588;2023-04-03T08:48:40;9;8;
38288;PMS5003;24092;53.370;-6.588;2023-04-03T08:51:11;7;6;
38288;PMS5003;24092;53.370;-6.588;2023-04-03T08:53:42;6;6;
38288;PMS5003;24092;53.370;-6.588;2023-04-03T08:56:15;6;5;
38288;PMS5003;24092;53.370;-6.588;2023-04-03T08:58:46;9;9;
38288;PMS5003;24092;53.370;-6.588;2023-04-03T09:01:17;6;6;
38288;PMS5003;24092;53.370;-6.588;2023-04-03T09:03:47;8;6;
38288;PMS5003;24092;53.370;-6.588;2023-04-03T09:06:15;11;9;
38288;PMS5003;24092;53.370;-6.588;2023-04-03T09:08:47;7;6;
38288;PMS5003;24092;53.370;-6.588;2023-04-03T09:11:24;12;10;
38288;PMS5003;24092;53.370;-6.588;2023-04-03T09:13:54;11;9;
38288;PMS5003;24092;53.370;-6.588;2023-04-03T09:16:28;7;7;
38288;PMS5003;24092;53.370;-6.588;2023-04-03T09:19:05;6;5;
38288;PMS5003;24092;53.370;-6.588;2023-04-03T09:21:41;7;7;
38288;PMS5003;24092;53.370;-6.588;2023-04-03T09:24:09;5;5;
38288;PMS5003;24092;53.370;-6.588;2023-04-03T09:26:41;6;6;
38288;PMS5003;24092;53.370;-6.588;2023-04-03T09:29:14;5;4;
38288;PMS5003;24092;53.370;-6.588;2023-04-03T09:31:46;5;4;
38288;PMS5003;24092;53.370;-6.588;2023-04-03T09:34:17;4;4;
38288;PMS5003;24092;53.370;-6.588;2023-04-03T09:36:50;6;5;
38288;PMS5003;24092;53.370;-6.588;2023-04-03T09:39:18;5;4;
38288;PMS5003;24092;53.370;-6.588;2023-04-03T09:42:03;5;5;
38288;PMS5003;24092;53.370;-6.588;2023-04-03T09:44:32;4;3;
38288;PMS5003;24092;53.370;-6.588;2023-04-03T09:47:16;5;5;
38288;PMS5003;24092;53.370;-6.588;2023-04-03T09:49:45;4;3;
38288;PMS5003;24092;53.370;-6.588;2023-04-03T09:52:22;6;6;
38288;PMS5003;24092;53.370;-6.588;2023-04-03T09:54:51;5;5;
38288;PMS5003;24092;53.370;-6.588;2023-04-03T09:57:18;6;5;
38288;PMS5003;24092;53.370;-6.588;2023-04-03T09:59:46;6;6;
38288;PMS5003;24092;53.370;-6.588;2023-04-03T10:02:28;4;3;
38288;PMS5003;24092;53.370;-6.588;2023-04-03T10:05:00;4;4;
38288;PMS5003;24092;53.370;-6.588;2023-04-03T10:07:30;5;4;
38288;PMS5003;24092;53.370;-6.588;2023-04-03T10:09:59;5;4;
38288;PMS5003;24092;53.370;-6.588;2023-04-03T10:12:29;3;3;
38288;PMS5003;24092;53.370;-6.588;2023-04-03T10:14:57;4;4;
38288;PMS5003;24092;53.370;-6.588;2023-04-03T10:17:29;4;4;
38288;PMS5003;24092;53.370;-6.588;2023-04-03T10:20:07;4;3;
38288;PMS5003;24092;53.370;-6.588;2023-04-03T10:22:51;4;4;
38288;PMS5003;24092;53.370;-6.588;2023-04-03T10:25:28;5;5;
38288;PMS5003;24092;53.370;-6.588;2023-04-03T10:28:03;3;3;
38288;PMS5003;24092;53.370;-6.588;2023-04-03T10:30:38;3;3;
38288;PMS5003;24092;53.370;-6.588;2023-04-03T10:33:18;4;4;
38288;PMS5003;24092;53.370;-6.588;2023-04-03T10:35:55;4;3;
38288;PMS5003;24092;53.370;-6.588;2023-04-03T10:38:33;5;4;
38288;PMS5003;24092;53.370;-6.588;2023-04-03T10:41:08;4;4;
38288;PMS5003;24092;53.370;-6.588;2023-04-03T10:43:43;6;4;
38288;PMS5003;24092;53.370;-6.588;2023-04-03T10:46:17;3;3;
38288;PMS5003;24092;53.370;-6.588;2023-04-03T10:48:53;4;3;
38288;PMS5003;24092;53.370;-6.588;2023-04-03T10:51:35;2;2;
38288;PMS5003;24092;53.370;-6.588;2023-04-03T10:54:08;7;5;
38288;PMS5003;24092;53.370;-6.588;2023-04-03T10:56:39;3;3;
38288;PMS5003;24092;53.370;-6.588;2023-04-03T10:59:13;3;3;
38288;PMS5003;24092;53.370;-6.588;2023-04-03T11:01:48;2;2;
38288;PMS5003;24092;53.370;-6.588;2023-04-03T11:04:20;2;2;
38288;PMS5003;24092;53.370;-6.588;2023-04-03T11:06:51;3;3;
38288;PMS5003;24092;53.370;-6.588;2023-04-03T11:09:25;3;2;
38288;PMS5003;24092;53.370;-6.588;2023-04-03T11:11:55;3;2;
38288;PMS5003;24092;53.370;-6.588;2023-04-03T11:14:29;3;2;
38288;PMS5003;24092;53.370;-6.588;2023-04-03T11:17:04;3;3;
38288;PMS5003;24092;53.370;-6.588;2023-04-03T11:19:38;5;3;
38288;PMS5003;24092;53.370;-6.588;2023-04-03T11:22:10;5;5;
38288;PMS5003;24092;53.370;-6.588;2023-04-03T11:24:52;3;3;
38288;PMS5003;24092;53.370;-6.588;2023-04-03T11:27:24;5;5;
38288;PMS5003;24092;53.370;-6.588;2023-04-03T11:29:54;3;3;
38288;PMS5003;24092;53.370;-6.588;2023-04-03T11:32:28;4;3;
38288;PMS5003;24092;53.370;-6.588;2023-04-03T11:35:11;3;3;
38288;PMS5003;24092;53.370;-6.588;2023-04-03T11:37:39;2;2;
38288;PMS5003;24092;53.370;-6.588;2023-04-03T11:40:19;4;2;
38288;PMS5003;24092;53.370;-6.588;2023-04-03T11:42:52;5;4;
38288;PMS5003;24092;53.370;-6.588;2023-04-03T11:45:32;5;3;
38288;PMS5003;24092;53.370;-6.588;2023-04-03T11:48:02;5;4;
38288;PMS5003;24092;53.370;-6.588;2023-04-03T11:50:32;5;4;
38288;PMS5003;24092;53.370;-6.588;2023-04-03T11:53:25;3;3;
38288;PMS5003;24092;53.370;-6.588;2023-04-03T11:55:56;4;3;
38288;PMS5003;24092;53.370;-6.588;2023-04-03T11:58:26;3;3;
38288;PMS5003;24092;53.370;-6.588;2023-04-03T12:00:56;4;4;
38288;PMS5003;24092;53.370;-6.588;2023-04-03T12:03:30;5;4;
38288;PMS5003;24092;53.370;-6.588;2023-04-03T12:06:42;3;3;
38288;PMS5003;24092;53.370;-6.588;2023-04-03T12:09:25;6;4;
38288;PMS5003;24092;53.370;-6.588;2023-04-03T12:11:54;5;4;
38288;PMS5003;24092;53.370;-6.588;2023-04-03T12:14:23;5;5;
38288;PMS5003;24092;53.370;-6.588;2023-04-03T12:16:52;5;5;
38288;PMS5003;24092;53.370;-6.588;2023-04-03T12:19:30;4;4;
38288;PMS5003;24092;53.370;-6.588;2023-04-03T12:22:17;4;4;
38288;PMS5003;24092;53.370;-6.588;2023-04-03T12:24:45;6;5;
38288;PMS5003;24092;53.370;-6.588;2023-04-03T12:27:19;3;3;
38288;PMS5003;24092;53.370;-6.588;2023-04-03T12:29:51;5;3;
38288;PMS5003;24092;53.370;-6.588;2023-04-03T12:32:25;4;4;
38288;PMS5003;24092;53.370;-6.588;2023-04-03T12:35:05;5;4;
38288;PMS5003;24092;53.370;-6.588;2023-04-03T12:37:48;4;3;
38288;PMS5003;24092;53.370;-6.588;2023-04-03T12:40:30;3;3;
38288;PMS5003;24092;53.370;-6.588;2023-04-03T12:43:08;3;3;
38288;PMS5003;24092;53.370;-6.588;2023-04-03T12:45:48;5;3;
38288;PMS5003;24092;53.370;-6.588;2023-04-03T12:48:20;2;2;
38288;PMS5003;24092;53.370;-6.588;2023-04-03T12:50:51;5;5;
38288;PMS5003;24092;53.370;-6.588;2023-04-03T12:53:19;4;4;
38288;PMS5003;24092;53.370;-6.588;2023-04-03T12:55:53;5;5;
38288;PMS5003;24092;53.370;-6.588;2023-04-03T12:58:21;5;3;
38288;PMS5003;24092;53.370;-6.588;2023-04-03T13:00:58;3;3;
38288;PMS5003;24092;53.370;-6.588;2023-04-03T13:03:26;5;4;
38288;PMS5003;24092;53.370;-6.588;2023-04-03T13:05:54;4;3;
38288;PMS5003;24092;53.370;-6.588;2023-04-03T13:08:27;3;3;
38288;PMS5003;24092;53.370;-6.588;2023-04-03T13:10:56;4;4;
38288;PMS5003;24092;53.370;-6.588;2023-04-03T13:13:28;4;4;
38288;PMS5003;24092;53.370;-6.588;2023-04-03T13:15:56;4;3;
38288;PMS5003;24092;53.370;-6.588;2023-04-03T13:18:24;5;5;
38288;PMS5003;24092;53.370;-6.588;2023-04-03T13:20:57;4;3;
38288;PMS5003;24092;53.370;-6.588;2023-04-03T13:23:27;4;4;
38288;PMS5003;24092;53.370;-6.588;2023-04-03T13:25:56;5;4;
38288;PMS5003;24092;53.370;-6.588;2023-04-03T13:28:24;5;5;
38288;PMS5003;24092;53.370;-6.588;2023-04-03T13:30:56;4;4;
38288;PMS5003;24092;53.370;-6.588;2023-04-03T13:33:28;4;4;
38288;PMS5003;24092;53.370;-6.588;2023-04-03T13:35:58;3;3;
38288;PMS5003;24092;53.370;-6.588;2023-04-03T13:38:30;5;4;
38288;PMS5003;24092;53.370;-6.588;2023-04-03T13:40:59;5;4;
38288;PMS5003;24092;53.370;-6.588;2023-04-03T13:43:28;6;4;
38288;PMS5003;24092;53.370;-6.588;2023-04-03T13:46:01;3;3;
38288;PMS5003;24092;53.370;-6.588;2023-04-03T13:48:34;3;3;
38288;PMS5003;24092;53.370;-6.588;2023-04-03T13:51:04;3;3;
38288;PMS5003;24092;53.370;-6.588;2023-04-03T13:53:33;4;4;
38288;PMS5003;24092;53.370;-6.588;2023-04-03T13:56:09;3;3;
38288;PMS5003;24092;53.370;-6.588;2023-04-03T13:58:52;5;3;
38288;PMS5003;24092;53.370;-6.588;2023-04-03T14:01:22;5;5;
38288;PMS5003;24092;53.370;-6.588;2023-04-03T14:03:52;2;2;
38288;PMS5003;24092;53.370;-6.588;2023-04-03T14:06:22;4;4;
38288;PMS5003;24092;53.370;-6.588;2023-04-03T14:08:50;5;5;
38288;PMS5003;24092;53.370;-6.588;2023-04-03T14:11:18;3;3;
38288;PMS5003;24092;53.370;-6.588;2023-04-03T14:13:47;4;4;
38288;PMS5003;24092;53.370;-6.588;2023-04-03T14:16:15;3;3;
38288;PMS5003;24092;53.370;-6.588;2023-04-03T14:18:45;4;4;
38288;PMS5003;24092;53.370;-6.588;2023-04-03T14:21:13;4;3;
38288;PMS5003;24092;53.370;-6.588;2023-04-03T14:23:41;3;3;
38288;PMS5003;24092;53.370;-6.588;2023-04-03T14:26:10;6;4;
38288;PMS5003;24092;53.370;-6.588;2023-04-03T14:28:39;7;4;
38288;PMS5003;24092;53.370;-6.588;2023-04-03T14:31:07;5;3;
38288;PMS5003;24092;53.370;-6.588;2023-04-03T14:33:36;4;3;
38288;PMS5003;24092;53.370;-6.588;2023-04-03T14:36:05;4;3;
38288;PMS5003;24092;53.370;-6.588;2023-04-03T14:38:39;4;3;
38288;PMS5003;24092;53.370;-6.588;2023-04-03T14:41:07;3;3;
38288;PMS5003;24092;53.370;-6.588;2023-04-03T14:43:37;2;2;
38288;PMS5003;24092;53.370;-6.588;2023-04-03T14:46:05;5;4;
38288;PMS5003;24092;53.370;-6.588;2023-04-03T14:48:38;7;7;
38288;PMS5003;24092;53.370;-6.588;2023-04-03T14:51:05;4;3;
38288;PMS5003;24092;53.370;-6.588;2023-04-03T14:53:33;7;7;
38288;PMS5003;24092;53.370;-6.588;2023-04-03T14:56:00;10;9;
38288;PMS5003;24092;53.370;-6.588;2023-04-03T14:58:27;6;6;
38288;PMS5003;24092;53.370;-6.588;2023-04-03T15:00:54;4;3;
38288;PMS5003;24092;53.370;-6.588;2023-04-03T15:03:21;3;3;
38288;PMS5003;24092;53.370;-6.588;2023-04-03T15:05:48;2;2;
38288;PMS5003;24092;53.370;-6.588;2023-04-03T15:08:18;5;4;
38288;PMS5003;24092;53.370;-6.588;2023-04-03T15:10:47;2;2;
38288;PMS5003;24092;53.370;-6.588;2023-04-03T15:13:14;3;3;
38288;PMS5003;24092;53.370;-6.588;2023-04-03T15:15:42;2;1;
38288;PMS5003;24092;53.370;-6.588;2023-04-03T15:18:11;2;2;
38288;PMS5003;24092;53.370;-6.588;2023-04-03T15:20:43;6;4;
38288;PMS5003;24092;53.370;-6.588;2023-04-03T15:23:11;4;3;
38288;PMS5003;24092;53.370;-6.588;2023-04-03T15:25:40;3;3;
38288;PMS5003;24092;53.370;-6.588;2023-04-03T15:28:08;3;2;
38288;PMS5003;24092;53.370;-6.588;2023-04-03T15:30:40;3;2;
38288;PMS5003;24092;53.370;-6.588;2023-04-03T15:33:06;2;2;
38288;PMS5003;24092;53.370;-6.588;2023-04-03T15:35:33;2;2;
38288;PMS5003;24092;53.370;-6.588;2023-04-03T15:38:00;3;3;
38288;PMS5003;24092;53.370;-6.588;2023-04-03T15:40:27;6;3;
38288;PMS5003;24092;53.370;-6.588;2023-04-03T15:42:54;2;2;
38288;PMS5003;24092;53.370;-6.588;2023-04-03T15:45:21;3;2;
38288;PMS5003;24092;53.370;-6.588;2023-04-03T15:47:49;4;4;
38288;PMS5003;24092;53.370;-6.588;2023-04-03T15:50:16;2;2;
38288;PMS5003;24092;53.370;-6.588;2023-04-03T15:52:44;3;3;
38288;PMS5003;24092;53.370;-6.588;2023-04-03T15:55:11;4;3;
38288;PMS5003;24092;53.370;-6.588;2023-04-03T15:57:38;2;2;
38288;PMS5003;24092;53.370;-6.588;2023-04-03T16:00:05;3;3;
38288;PMS5003;24092;53.370;-6.588;2023-04-03T16:02:33;3;3;
38288;PMS5003;24092;53.370;-6.588;2023-04-03T16:05:01;4;4;
38288;PMS5003;24092;53.370;-6.588;2023-04-03T16:07:29;3;3;
38288;PMS5003;24092;53.370;-6.588;2023-04-03T16:09:56;2;2;
38288;PMS5003;24092;53.370;-6.588;2023-04-03T16:12:23;3;2;
38288;PMS5003;24092;53.370;-6.588;2023-04-03T16:14:50;3;3;
38288;PMS5003;24092;53.370;-6.588;2023-04-03T16:17:17;3;3;
38288;PMS5003;24092;53.370;-6.588;2023-04-03T16:19:44;4;4;
38288;PMS5003;24092;53.370;-6.588;2023-04-03T16:22:11;5;4;
38288;PMS5003;24092;53.370;-6.588;2023-04-03T16:24:38;2;2;
38288;PMS5003;24092;53.370;-6.588;2023-04-03T16:27:05;3;3;
38288;PMS5003;24092;53.370;-6.588;2023-04-03T16:29:32;5;3;
38288;PMS5003;24092;53.370;-6.588;2023-04-03T16:31:59;3;3;
38288;PMS5003;24092;53.370;-6.588;2023-04-03T16:34:28;3;2;
38288;PMS5003;24092;53.370;-6.588;2023-04-03T16:36:55;3;3;
38288;PMS5003;24092;53.370;-6.588;2023-04-03T16:39:23;3;3;
38288;PMS5003;24092;53.370;-6.588;2023-04-03T16:41:49;4;4;
38288;PMS5003;24092;53.370;-6.588;2023-04-03T16:44:16;2;2;
38288;PMS5003;24092;53.370;-6.588;2023-04-03T16:46:43;3;3;